Copper King, Montana
Current Conditions -  °F | °C
As of 4:53 AM on Friday 24 Oct 2014 (Local Time) from KMLP Reporting Station
Overcast Overcast  
Wind Chill: 26°   Ceiling: 800
Heat Index: 32°   Visibility: 10mi
Dew Point: 31°   Wind: 6mph
Humidity: 96%   Direction: NA
Pressure: 30.03"   Gusts: NA
Location:  47.6853°N, 115.247°W
Report Text: KMLP 241053Z AUTO VRB05KT 10SM BKN008 BKN012 OVC065 00/M01 A3003 RMK AO2 CIG 004V010 SLP136 T00001006
Loading
Personal Weather Stations






























Interactive Weather Map
Tropical Storm Tracking
New forecast layout! Learn more

10-Day Weather Forecast

Advertisements
Track Severe Weather on mobile